Time,TemperatureF,DewpointF,PressureIn,WindDirection,WindDirectionDegrees,WindSpeedMPH,WindSpeedGustMPH,Humidity,HourlyPrecipIn,Conditions,Clouds,dailyrainin,SolarRadiationWatts/m^2,SoftwareType,DateUTC
2013-01-19 00:00:00,26.5,6.5,30.18,SSW,204,5.0,5.0,42,0.00,,,0.00,0,Wunderground v.1.15,2013-01-19 07:00:00,
2013-01-19 00:10:00,26.0,6.5,30.19,West,272,2.0,2.0,43,0.00,,,0.00,0,Wunderground v.1.15,2013-01-19 07:10:00,
2013-01-19 00:30:00,25.7,6.8,30.17,SSE,153,5.0,7.0,44,0.00,,,0.00,0,Wunderground v.1.15,2013-01-19 07:30:00,
2013-01-19 00:40:00,25.4,6.5,30.17,SE,133,3.0,7.0,44,0.00,,,0.00,0,Wunderground v.1.15,2013-01-19 07:40:00,
2013-01-19 00:50:00,25.5,6.6,30.18,SSW,200,5.0,5.0,44,0.00,,,0.00,0,Wunderground v.1.15,2013-01-19 07:50:00,
2013-01-19 01:20:00,29.9,6.1,30.15,WNW,292,17.0,23.0,36,0.00,,,0.00,0,Wunderground v.1.15,2013-01-19 08:20:00,
2013-01-19 01:30:00,30.1,6.3,30.17,WNW,286,24.0,32.0,36,0.00,,,0.00,0,Wunderground v.1.15,2013-01-19 08:30:00,
2013-01-19 01:51:00,29.9,6.1,30.16,NW,311,17.0,17.0,36,0.00,,,0.00,0,Wunderground v.1.15,2013-01-19 08:51:00,
2013-01-19 02:00:00,30.0,6.2,30.15,NW,322,17.0,17.0,36,0.00,,,0.00,0,Wunderground v.1.15,2013-01-19 09:00:00,
2013-01-19 02:10:00,30.5,6.1,30.14,NW,318,23.0,23.0,35,0.00,,,0.00,0,Wunderground v.1.15,2013-01-19 09:10:00,
2013-01-19 02:30:00,32.3,6.4,30.12,WNW,287,28.0,56.0,33,0.00,,,0.00,0,Wunderground v.1.15,2013-01-19 09:30:00,
2013-01-19 02:40:00,33.0,6.3,30.13,WNW,296,32.0,37.0,32,0.00,,,0.00,0,Wunderground v.1.15,2013-01-19 09:40:00,
2013-01-19 03:00:00,32.5,5.9,30.09,WNW,282,31.0,45.0,32,0.00,,,0.00,0,Wunderground v.1.15,2013-01-19 10:00:00,
2013-01-19 03:10:00,32.4,5.8,30.11,West,266,28.0,33.0,32,0.00,,,0.00,0,Wunderground v.1.15,2013-01-19 10:10:00,
2013-01-19 03:30:00,32.6,5.3,30.14,WNW,298,24.0,32.0,31,0.00,,,0.00,0,Wunderground v.1.15,2013-01-19 10:30:00,
2013-01-19 03:40:00,32.3,5.7,30.15,West,267,24.0,24.0,32,0.00,,,0.00,0,Wunderground v.1.15,2013-01-19 10:40:00,
2013-01-19 04:00:00,31.5,5.7,30.16,WSW,255,19.0,27.0,33,0.00,,,0.00,0,Wunderground v.1.15,2013-01-19 11:00:00,
2013-01-19 04:10:00,31.2,5.4,30.17,East,89,12.0,12.0,33,0.00,,,0.00,0,Wunderground v.1.15,2013-01-19 11:10:00,
2013-01-19 05:50:00,26.8,5.1,30.25,West,269,13.0,15.0,39,0.00,,,0.00,0,Wunderground v.1.15,2013-01-19 12:50:00,
2013-01-19 06:00:00,26.7,5.0,30.26,WSW,249,9.0,9.0,39,0.00,,,0.00,0,Wunderground v.1.15,2013-01-19 13:00:00,
2013-01-19 06:21:00,26.5,4.8,30.23,WSW,244,24.0,24.0,39,0.00,,,0.00,0,Wunderground v.1.15,2013-01-19 13:21:00,
2013-01-19 06:30:00,27.0,5.3,30.22,WSW,238,31.0,31.0,39,0.00,,,0.00,0,Wunderground v.1.15,2013-01-19 13:30:00,
2013-01-19 06:50:00,27.7,5.4,30.23,WSW,257,31.0,40.0,38,0.00,,,0.00,0,Wunderground v.1.15,2013-01-19 13:50:00,
2013-01-19 07:00:00,27.5,4.6,30.23,West,261,31.0,31.0,37,0.00,,,0.00,0,Wunderground v.1.15,2013-01-19 14:00:00,
2013-01-19 07:21:00,27.3,5.0,30.24,SW,229,31.0,44.0,38,0.00,,,0.00,0,Wunderground v.1.15,2013-01-19 14:21:00,
2013-01-19 07:30:00,27.4,5.1,30.24,West,261,31.0,45.0,38,0.00,,,0.00,7,Wunderground v.1.15,2013-01-19 14:30:00,
2013-01-19 07:40:00,27.8,4.9,30.25,SW,223,32.0,32.0,37,0.00,,,0.00,11,Wunderground v.1.15,2013-01-19 14:40:00,
2013-01-19 08:01:00,27.5,5.2,30.26,SSW,192,26.0,26.0,38,0.00,,,0.00,33,Wunderground v.1.15,2013-01-19 15:01:00,
2013-01-19 08:10:00,27.9,5.0,30.27,SW,235,24.0,24.0,37,0.00,,,0.00,58,Wunderground v.1.15,2013-01-19 15:10:00,
2013-01-19 08:30:00,28.8,5.2,30.28,WSW,252,22.0,28.0,36,0.00,,,0.00,123,Wunderground v.1.15,2013-01-19 15:30:00,
2013-01-19 08:50:00,29.8,5.4,30.28,West,270,21.0,21.0,35,0.00,,,0.00,193,Wunderground v.1.15,2013-01-19 15:50:00,
2013-01-19 09:10:00,31.0,5.2,30.29,West,274,22.0,32.0,33,0.00,,,0.00,264,Wunderground v.1.15,2013-01-19 16:10:00,
2013-01-19 09:21:00,31.7,5.2,30.30,West,265,23.0,23.0,32,0.00,,,0.00,297,Wunderground v.1.15,2013-01-19 16:21:00,
2013-01-19 09:30:00,32.3,5.7,30.30,West,271,22.0,22.0,32,0.00,,,0.00,322,Wunderground v.1.15,2013-01-19 16:30:00,
2013-01-19 09:40:00,32.1,6.2,30.31,WSW,244,25.0,32.0,33,0.00,,,0.00,353,Wunderground v.1.15,2013-01-19 16:40:00,
2013-01-19 10:00:00,32.7,6.0,30.31,SW,236,29.0,29.0,32,0.00,,,0.00,396,Wunderground v.1.15,2013-01-19 17:00:00,
2013-01-19 10:20:00,33.6,5.4,30.30,West,271,29.0,31.0,30,0.00,,,0.00,434,Wunderground v.1.15,2013-01-19 17:20:00,
2013-01-19 11:30:00,36.6,7.3,30.30,WSW,242,22.0,25.0,29,0.00,,,0.00,524,Wunderground v.1.15,2013-01-19 18:30:00,
2013-01-19 11:41:00,37.1,6.1,30.29,SW,222,23.0,23.0,27,0.00,,,0.00,533,Wunderground v.1.15,2013-01-19 18:41:00,
2013-01-19 11:50:00,37.3,6.3,30.29,WSW,251,23.0,30.0,27,0.00,,,0.00,538,Wunderground v.1.15,2013-01-19 18:50:00,
2013-01-19 12:10:00,37.8,5.9,30.28,West,259,22.0,24.0,26,0.00,,,0.00,543,Wunderground v.1.15,2013-01-19 19:10:00,
2013-01-19 12:30:00,37.0,6.1,30.28,West,281,25.0,25.0,27,0.00,,,0.00,538,Wunderground v.1.15,2013-01-19 19:30:00,
2013-01-19 12:50:00,37.1,7.7,30.28,WNW,287,24.0,27.0,29,0.00,,,0.00,529,Wunderground v.1.15,2013-01-19 19:50:00,
2013-01-19 13:10:00,37.2,6.2,30.28,SW,234,21.0,21.0,27,0.00,,,0.00,513,Wunderground v.1.15,2013-01-19 20:10:00,
2013-01-19 13:30:00,38.0,6.9,30.29,SSW,207,12.0,12.0,27,0.00,,,0.00,415,Wunderground v.1.15,2013-01-19 20:30:00,
2013-01-19 13:41:00,38.3,7.2,30.29,South,190,11.0,23.0,27,0.00,,,0.00,311,Wunderground v.1.15,2013-01-19 20:41:00,
2013-01-19 13:50:00,38.5,7.4,30.29,SSW,213,11.0,11.0,27,0.00,,,0.00,441,Wunderground v.1.15,2013-01-19 20:50:00,
2013-01-19 14:50:00,39.0,6.1,30.27,SSW,200,13.0,13.0,25,0.00,,,0.00,223,Wunderground v.1.15,2013-01-19 21:50:00,
2013-01-19 15:20:00,37.8,6.8,30.27,SE,136,12.0,14.0,27,0.00,,,0.00,139,Wunderground v.1.15,2013-01-19 22:20:00,
2013-01-19 15:30:00,37.6,8.2,30.27,South,181,13.0,21.0,29,0.00,,,0.00,128,Wunderground v.1.15,2013-01-19 22:30:00,
2013-01-19 15:50:00,36.3,7.0,30.26,South,182,12.0,12.0,29,0.00,,,0.00,53,Wunderground v.1.15,2013-01-19 22:50:00,
2013-01-19 16:10:00,36.0,6.0,30.27,SSE,167,13.0,13.0,28,0.00,,,0.00,56,Wunderground v.1.15,2013-01-19 23:10:00,
2013-01-19 16:30:00,35.4,6.2,30.28,South,170,10.0,14.0,29,0.00,,,0.00,54,Wunderground v.1.15,2013-01-19 23:30:00,
2013-01-19 17:10:00,33.5,8.1,30.27,South,180,8.0,14.0,34,0.00,,,0.00,7,Wunderground v.1.15,2013-01-20 00:10:00,
2013-01-19 17:30:00,32.7,6.7,30.28,WSW,239,9.0,9.0,33,0.00,,,0.00,0,Wunderground v.1.15,2013-01-20 00:30:00,
2013-01-19 17:50:00,32.1,6.8,30.27,South,184,5.0,5.0,34,0.00,,,0.00,0,Wunderground v.1.15,2013-01-20 00:50:00,
2013-01-19 18:10:00,31.2,6.0,30.26,SSE,168,7.0,7.0,34,0.00,,,0.00,0,Wunderground v.1.15,2013-01-20 01:10:00,
2013-01-19 18:30:00,30.5,6.1,30.26,South,180,3.0,3.0,35,0.00,,,0.00,0,Wunderground v.1.15,2013-01-20 01:30:00,
2013-01-19 18:50:00,30.2,5.2,30.25,East,97,6.0,8.0,34,0.00,,,0.00,0,Wunderground v.1.15,2013-01-20 01:50:00,
2013-01-19 19:00:00,29.9,4.9,30.24,ENE,59,8.0,8.0,34,0.00,,,0.00,0,Wunderground v.1.15,2013-01-20 02:00:00,
2013-01-19 19:20:00,30.5,4.8,30.25,ESE,113,5.0,12.0,33,0.00,,,0.00,0,Wunderground v.1.15,2013-01-20 02:20:00,
2013-01-19 19:40:00,29.7,4.7,30.24,ESE,122,7.0,7.0,34,0.00,,,0.00,0,Wunderground v.1.15,2013-01-20 02:40:00,
2013-01-19 20:00:00,30.1,3.7,30.24,SE,124,7.0,7.0,32,0.00,,,0.00,0,Wunderground v.1.15,2013-01-20 03:00:00,
2013-01-19 20:20:00,30.4,4.0,30.24,SSE,150,5.0,9.0,32,0.00,,,0.00,0,Wunderground v.1.15,2013-01-20 03:20:00,
2013-01-19 20:40:00,30.3,3.9,30.26,South,175,8.0,8.0,32,0.00,,,0.00,0,Wunderground v.1.15,2013-01-20 03:40:00,
2013-01-19 20:51:00,30.1,3.7,30.25,SSE,159,10.0,12.0,32,0.00,,,0.00,0,Wunderground v.1.15,2013-01-20 03:51:00,
2013-01-19 21:00:00,30.5,4.1,30.25,SSE,160,10.0,10.0,32,0.00,,,0.00,0,Wunderground v.1.15,2013-01-20 04:00:00,
2013-01-19 21:10:00,30.4,4.0,30.25,South,191,10.0,12.0,32,0.00,,,0.00,0,Wunderground v.1.15,2013-01-20 04:10:00,
2013-01-19 21:30:00,30.6,4.2,30.25,East,100,6.0,6.0,32,0.00,,,0.00,0,Wunderground v.1.15,2013-01-20 04:30:00,
2013-01-19 21:50:00,30.4,4.7,30.24,ENE,71,7.0,12.0,33,0.00,,,0.00,0,Wunderground v.1.15,2013-01-20 04:50:00,
2013-01-19 22:10:00,30.4,4.0,30.24,ESE,116,8.0,11.0,32,0.00,,,0.00,0,Wunderground v.1.15,2013-01-20 05:10:00,
2013-01-19 22:30:00,28.5,4.3,30.22,ESE,117,12.0,12.0,35,0.00,,,0.00,0,Wunderground v.1.15,2013-01-20 05:30:00,
2013-01-19 22:41:00,29.5,3.9,30.22,East,93,8.0,8.0,33,0.00,,,0.00,0,Wunderground v.1.15,2013-01-20 05:41:00,
2013-01-19 22:50:00,30.4,4.0,30.20,WSW,254,7.0,10.0,32,0.00,,,0.00,0,Wunderground v.1.15,2013-01-20 05:50:00,
2013-01-19 23:00:00,31.0,4.5,30.20,NNW,340,10.0,10.0,32,0.00,,,0.00,0,Wunderground v.1.15,2013-01-20 06:00:00,
2013-01-19 23:10:00,30.8,4.4,30.20,West,265,6.0,6.0,32,0.00,,,0.00,0,Wunderground v.1.15,2013-01-20 06:10:00,
2013-01-19 23:20:00,30.8,4.4,30.19,West,266,12.0,12.0,32,0.00,,,0.00,0,Wunderground v.1.15,2013-01-20 06:20:00,
2013-01-19 23:30:00,30.6,4.9,30.18,WNW,302,6.0,6.0,33,0.00,,,0.00,0,Wunderground v.1.15,2013-01-20 06:30:00,
2013-01-19 23:40:00,30.6,4.2,30.18,SSW,199,12.0,17.0,32,0.00,,,0.00,0,Wunderground v.1.15,2013-01-20 06:40:00,